Terminal Aerodrome Forecast
Issued by NWS

Current Version | Previous Version | Text Only | Print | Product List | Glossary On
Versions: 1 2 3 4 5 6 7 8 9 10 11 12 13
000
FTUS42 KTAE 211200 AAA
TAFVLD
TAF AMD
KVLD 211207Z 2112/2212 00000KT 6SM BR SKC
      TEMPO 2112/2113 4SM BR
     FM211400 06008KT P6SM FEW250=

USA.gov is the U.S. government's official web portal to all federal, state and local government web resources and services.